sensor_id;sensor_type;location;lat;lon;timestamp;pressure;altitude;pressure_sealevel;temperature;humidity
56671;BME280;42545;50.054;8.306;2023-04-30T00:02:18;100436.75;;;10.25;91.36
56671;BME280;42545;50.054;8.306;2023-04-30T00:04:45;100428.81;;;10.23;91.41
56671;BME280;42545;50.054;8.306;2023-04-30T00:07:12;100429.69;;;10.24;91.41
56671;BME280;42545;50.054;8.306;2023-04-30T00:09:39;100430.56;;;10.23;91.28
56671;BME280;42545;50.054;8.306;2023-04-30T00:12:05;100432.28;;;10.22;91.36
56671;BME280;42545;50.054;8.306;2023-04-30T00:14:34;100429.66;;;10.20;91.47
56671;BME280;42545;50.054;8.306;2023-04-30T00:17:00;100429.59;;;10.19;91.40
56671;BME280;42545;50.054;8.306;2023-04-30T00:19:27;100430.47;;;10.19;91.78
56671;BME280;42545;50.054;8.306;2023-04-30T00:21:54;100432.25;;;10.19;91.63
56671;BME280;42545;50.054;8.306;2023-04-30T00:24:20;100428.72;;;10.18;91.42
56671;BME280;42545;50.054;8.306;2023-04-30T00:26:47;100430.44;;;10.18;91.50
56671;BME280;42545;50.054;8.306;2023-04-30T00:29:14;100434.84;;;10.17;91.33
56671;BME280;42545;50.054;8.306;2023-04-30T00:31:42;100432.19;;;10.17;91.52
56671;BME280;42545;50.054;8.306;2023-04-30T00:34:09;100433.03;;;10.16;91.48
56671;BME280;42545;50.054;8.306;2023-04-30T00:36:35;100438.31;;;10.16;91.40
56671;BME280;42545;50.054;8.306;2023-04-30T00:39:02;100430.41;;;10.16;91.19
56671;BME280;42545;50.054;8.306;2023-04-30T00:41:29;100435.69;;;10.16;91.28
56671;BME280;42545;50.054;8.306;2023-04-30T00:43:57;100433.97;;;10.17;91.11
56671;BME280;42545;50.054;8.306;2023-04-30T00:46:23;100441.81;;;10.15;91.09
56671;BME280;42545;50.054;8.306;2023-04-30T00:48:52;100433.91;;;10.15;91.03
56671;BME280;42545;50.054;8.306;2023-04-30T00:51:19;100442.75;;;10.17;90.95
56671;BME280;42545;50.054;8.306;2023-04-30T00:53:46;100441.88;;;10.17;90.86
56671;BME280;42545;50.054;8.306;2023-04-30T00:56:13;100437.38;;;10.14;90.87
56671;BME280;42545;50.054;8.306;2023-04-30T00:58:41;100443.59;;;10.16;90.80
56671;BME280;42545;50.054;8.306;2023-04-30T01:01:08;100446.22;;;10.15;90.83
56671;BME280;42545;50.054;8.306;2023-04-30T01:03:35;100437.34;;;10.11;90.94
56671;BME280;42545;50.054;8.306;2023-04-30T01:06:03;100446.22;;;10.15;90.84
56671;BME280;42545;50.054;8.306;2023-04-30T01:08:30;100435.66;;;10.15;90.90
56671;BME280;42545;50.054;8.306;2023-04-30T01:11:06;100429.47;;;10.14;90.61
56671;BME280;42545;50.054;8.306;2023-04-30T01:13:40;100436.53;;;10.15;90.61
56671;BME280;42545;50.054;8.306;2023-04-30T01:16:14;100435.66;;;10.15;90.27
56671;BME280;42545;50.054;8.306;2023-04-30T01:18:47;100433.88;;;10.14;90.60
56671;BME280;42545;50.054;8.306;2023-04-30T01:21:17;100433.03;;;10.15;90.73
56671;BME280;42545;50.054;8.306;2023-04-30T01:23:59;100433.88;;;10.14;90.83
56671;BME280;42545;50.054;8.306;2023-04-30T01:26:42;100435.63;;;10.13;90.93
56671;BME280;42545;50.054;8.306;2023-04-30T01:29:16;100428.56;;;10.12;90.80
56671;BME280;42545;50.054;8.306;2023-04-30T01:31:44;100432.03;;;10.10;90.72
56671;BME280;42545;50.054;8.306;2023-04-30T01:34:11;100432.06;;;10.11;90.78
56671;BME280;42545;50.054;8.306;2023-04-30T01:36:46;100426.72;;;10.08;90.72
56671;BME280;42545;50.054;8.306;2023-04-30T01:39:31;100420.41;;;10.03;90.95
56671;BME280;42545;50.054;8.306;2023-04-30T01:42:06;100417.69;;;9.98;91.01
56671;BME280;42545;50.054;8.306;2023-04-30T01:44:48;100430.75;;;9.94;91.08
56671;BME280;42545;50.054;8.306;2023-04-30T01:47:24;100429.69;;;9.86;91.23
56671;BME280;42545;50.054;8.306;2023-04-30T01:50:02;100418.91;;;9.78;91.53
56671;BME280;42545;50.054;8.306;2023-04-30T01:52:37;100430.16;;;9.71;91.75
56671;BME280;42545;50.054;8.306;2023-04-30T01:55:08;100444.88;;;9.62;92.10
56671;BME280;42545;50.054;8.306;2023-04-30T01:57:40;100438.50;;;9.53;92.22
56671;BME280;42545;50.054;8.306;2023-04-30T02:00:10;100437.47;;;9.48;92.37
56671;BME280;42545;50.054;8.306;2023-04-30T02:02:38;100443.41;;;9.40;92.91
56671;BME280;42545;50.054;8.306;2023-04-30T02:05:05;100459.03;;;9.34;93.05
56671;BME280;42545;50.054;8.306;2023-04-30T02:07:38;100447.50;;;9.29;93.25
56671;BME280;42545;50.054;8.306;2023-04-30T02:10:06;100457.91;;;9.24;93.53
56671;BME280;42545;50.054;8.306;2023-04-30T02:12:34;100452.53;;;9.21;93.78
56671;BME280;42545;50.054;8.306;2023-04-30T02:15:01;100451.53;;;9.18;93.94
56671;BME280;42545;50.054;8.306;2023-04-30T02:17:29;100452.38;;;9.15;94.68
56671;BME280;42545;50.054;8.306;2023-04-30T02:19:56;100455.00;;;9.15;94.43
56671;BME280;42545;50.054;8.306;2023-04-30T02:22:23;100453.19;;;9.13;94.37
56671;BME280;42545;50.054;8.306;2023-04-30T02:24:50;100452.31;;;9.14;94.65
56671;BME280;42545;50.054;8.306;2023-04-30T02:27:19;100461.97;;;9.13;94.76
56671;BME280;42545;50.054;8.306;2023-04-30T02:29:46;100453.19;;;9.13;94.57
56671;BME280;42545;50.054;8.306;2023-04-30T02:32:13;100454.84;;;9.11;94.78
56671;BME280;42545;50.054;8.306;2023-04-30T02:34:41;100453.13;;;9.11;94.78
56671;BME280;42545;50.054;8.306;2023-04-30T02:37:08;100455.81;;;9.13;94.59
56671;BME280;42545;50.054;8.306;2023-04-30T02:39:35;100444.38;;;9.12;94.59
56671;BME280;42545;50.054;8.306;2023-04-30T02:42:02;100441.69;;;9.11;94.43
56671;BME280;42545;50.054;8.306;2023-04-30T02:44:30;100438.19;;;9.10;94.60
56671;BME280;42545;50.054;8.306;2023-04-30T02:46:57;100441.69;;;9.11;94.28
56671;BME280;42545;50.054;8.306;2023-04-30T02:49:23;100444.31;;;9.11;94.31
56671;BME280;42545;50.054;8.306;2023-04-30T02:51:52;100438.06;;;9.07;93.94
56671;BME280;42545;50.054;8.306;2023-04-30T02:54:19;100450.47;;;9.10;93.76
56671;BME280;42545;50.054;8.306;2023-04-30T02:56:46;100442.50;;;9.08;93.51
56671;BME280;42545;50.054;8.306;2023-04-30T02:59:13;100446.94;;;9.09;93.13
56671;BME280;42545;50.054;8.306;2023-04-30T03:01:39;100445.16;;;9.08;93.00
56671;BME280;42545;50.054;8.306;2023-04-30T03:04:06;100446.94;;;9.09;92.69
56671;BME280;42545;50.054;8.306;2023-04-30T03:06:33;100455.66;;;9.08;92.41
56671;BME280;42545;50.054;8.306;2023-04-30T03:09:01;100449.53;;;9.08;92.34
56671;BME280;42545;50.054;8.306;2023-04-30T03:11:27;100457.41;;;9.08;92.11
56671;BME280;42545;50.054;8.306;2023-04-30T03:13:54;100460.88;;;9.07;91.66
56671;BME280;42545;50.054;8.306;2023-04-30T03:16:21;100453.81;;;9.04;91.69
56671;BME280;42545;50.054;8.306;2023-04-30T03:18:48;100458.19;;;9.03;91.40
56671;BME280;42545;50.054;8.306;2023-04-30T03:21:15;100444.16;;;9.04;91.11
56671;BME280;42545;50.054;8.306;2023-04-30T03:23:42;100442.41;;;9.03;91.00
56671;BME280;42545;50.054;8.306;2023-04-30T03:26:10;100442.34;;;9.02;90.59
56671;BME280;42545;50.054;8.306;2023-04-30T03:28:37;100436.88;;;8.96;90.45
56671;BME280;42545;50.054;8.306;2023-04-30T03:31:03;100443.22;;;9.02;90.33
56671;BME280;42545;50.054;8.306;2023-04-30T03:33:31;100454.59;;;9.01;90.37
56671;BME280;42545;50.054;8.306;2023-04-30T03:35:58;100451.06;;;9.01;90.33
56671;BME280;42545;50.054;8.306;2023-04-30T03:38:25;100444.88;;;8.99;90.04
56671;BME280;42545;50.054;8.306;2023-04-30T03:40:51;100450.19;;;9.00;90.20
56671;BME280;42545;50.054;8.306;2023-04-30T03:43:20;100444.94;;;9.00;90.19
56671;BME280;42545;50.054;8.306;2023-04-30T03:45:47;100445.75;;;8.99;89.91
56671;BME280;42545;50.054;8.306;2023-04-30T03:48:13;100456.34;;;9.01;89.94
56671;BME280;42545;50.054;8.306;2023-04-30T03:50:40;100451.94;;;9.00;89.79
56671;BME280;42545;50.054;8.306;2023-04-30T03:53:07;100437.88;;;8.99;89.85
56671;BME280;42545;50.054;8.306;2023-04-30T03:55:33;100444.06;;;9.01;89.84
56671;BME280;42545;50.054;8.306;2023-04-30T03:58:01;100448.53;;;9.04;89.77
56671;BME280;42545;50.054;8.306;2023-04-30T04:00:29;100446.78;;;9.04;89.48
56671;BME280;42545;50.054;8.306;2023-04-30T04:02:56;100442.41;;;9.03;89.58
56671;BME280;42545;50.054;8.306;2023-04-30T04:05:24;100441.53;;;9.04;89.74
56671;BME280;42545;50.054;8.306;2023-04-30T04:07:50;100446.78;;;9.04;89.42
56671;BME280;42545;50.054;8.306;2023-04-30T04:10:17;100455.56;;;9.05;89.63
56671;BME280;42545;50.054;8.306;2023-04-30T04:12:44;100451.19;;;9.04;89.39
56671;BME280;42545;50.054;8.306;2023-04-30T04:15:11;100458.19;;;9.03;89.30
56671;BME280;42545;50.054;8.306;2023-04-30T04:17:39;100457.31;;;9.04;89.57
56671;BME280;42545;50.054;8.306;2023-04-30T04:20:07;100456.44;;;9.04;89.58
56671;BME280;42545;50.054;8.306;2023-04-30T04:22:33;100458.25;;;9.07;89.33
56671;BME280;42545;50.054;8.306;2023-04-30T04:25:00;100463.56;;;9.08;88.88
56671;BME280;42545;50.054;8.306;2023-04-30T04:27:27;100462.75;;;9.11;88.44
56671;BME280;42545;50.054;8.306;2023-04-30T04:29:54;100461.91;;;9.12;87.80
56671;BME280;42545;50.054;8.306;2023-04-30T04:32:21;100456.75;;;9.15;87.02
56671;BME280;42545;50.054;8.306;2023-04-30T04:34:50;100468.31;;;9.20;86.72
56671;BME280;42545;50.054;8.306;2023-04-30T04:37:18;100470.13;;;9.22;86.14
56671;BME280;42545;50.054;8.306;2023-04-30T04:39:45;100473.75;;;9.26;85.38
56671;BME280;42545;50.054;8.306;2023-04-30T04:42:11;100469.41;;;9.28;84.35
56671;BME280;42545;50.054;8.306;2023-04-30T04:44:38;100479.22;;;9.34;83.74
56671;BME280;42545;50.054;8.306;2023-04-30T04:47:05;100479.31;;;9.37;83.72
56671;BME280;42545;50.054;8.306;2023-04-30T04:49:32;100481.16;;;9.41;83.17
56671;BME280;42545;50.054;8.306;2023-04-30T04:52:00;100483.03;;;9.45;82.92
56671;BME280;42545;50.054;8.306;2023-04-30T04:54:27;100477.72;;;9.42;82.83
56671;BME280;42545;50.054;8.306;2023-04-30T04:56:53;100490.22;;;9.51;82.19
56671;BME280;42545;50.054;8.306;2023-04-30T04:59:20;100473.41;;;9.46;81.85
56671;BME280;42545;50.054;8.306;2023-04-30T05:01:47;100489.47;;;9.55;80.66
56671;BME280;42545;50.054;8.306;2023-04-30T05:04:13;100482.53;;;9.58;80.33
56671;BME280;42545;50.054;8.306;2023-04-30T05:06:40;100484.44;;;9.64;79.43
56671;BME280;42545;50.054;8.306;2023-04-30T05:09:09;100482.84;;;9.69;79.04
56671;BME280;42545;50.054;8.306;2023-04-30T05:11:36;100465.13;;;9.65;78.22
56671;BME280;42545;50.054;8.306;2023-04-30T05:14:03;100482.16;;;9.78;78.52
56671;BME280;42545;50.054;8.306;2023-04-30T05:16:30;100483.13;;;9.81;77.97
56671;BME280;42545;50.054;8.306;2023-04-30T05:18:57;100482.34;;;9.84;77.88
56671;BME280;42545;50.054;8.306;2023-04-30T05:21:23;100482.38;;;9.86;77.66
56671;BME280;42545;50.054;8.306;2023-04-30T05:23:53;100486.88;;;9.90;77.82
56671;BME280;42545;50.054;8.306;2023-04-30T05:26:21;100489.63;;;9.94;77.61
56671;BME280;42545;50.054;8.306;2023-04-30T05:28:48;100488.81;;;9.97;77.62
56671;BME280;42545;50.054;8.306;2023-04-30T05:31:16;100496.78;;;10.00;77.06
56671;BME280;42545;50.054;8.306;2023-04-30T05:33:43;100489.94;;;10.07;77.05
56671;BME280;42545;50.054;8.306;2023-04-30T05:36:10;100492.72;;;10.11;76.91
56671;BME280;42545;50.054;8.306;2023-04-30T05:38:37;100493.78;;;10.19;76.72
56671;BME280;42545;50.054;8.306;2023-04-30T05:41:03;100485.13;;;10.25;76.37
56671;BME280;42545;50.054;8.306;2023-04-30T05:43:31;100487.09;;;10.32;76.23
56671;BME280;42545;50.054;8.306;2023-04-30T05:45:58;100495.13;;;10.38;75.61
56671;BME280;42545;50.054;8.306;2023-04-30T05:48:24;100497.84;;;10.42;75.56
56671;BME280;42545;50.054;8.306;2023-04-30T05:50:51;100499.78;;;10.49;75.47
56671;BME280;42545;50.054;8.306;2023-04-30T05:53:18;100484.88;;;10.51;75.48
56671;BME280;42545;50.054;8.306;2023-04-30T05:55:44;100493.94;;;10.61;75.26
56671;BME280;42545;50.054;8.306;2023-04-30T05:58:11;100486.97;;;10.66;75.01
56671;BME280;42545;50.054;8.306;2023-04-30T06:00:39;100495.88;;;10.69;75.03
56671;BME280;42545;50.054;8.306;2023-04-30T06:03:06;100492.50;;;10.76;74.26
56671;BME280;42545;50.054;8.306;2023-04-30T06:05:33;100495.31;;;10.83;74.30
56671;BME280;42545;50.054;8.306;2023-04-30T06:07:59;100500.94;;;11.00;73.60
56671;BME280;42545;50.054;8.306;2023-04-30T06:10:26;100489.75;;;11.11;74.09
56671;BME280;42545;50.054;8.306;2023-04-30T06:12:52;100490.88;;;11.23;73.04
56671;BME280;42545;50.054;8.306;2023-04-30T06:15:19;100485.69;;;11.27;72.15
56671;BME280;42545;50.054;8.306;2023-04-30T06:17:48;100484.88;;;11.30;72.38
56671;BME280;42545;50.054;8.306;2023-04-30T06:20:15;100491.00;;;11.29;71.91
56671;BME280;42545;50.054;8.306;2023-04-30T06:22:42;100494.47;;;11.26;71.56
56671;BME280;42545;50.054;8.306;2023-04-30T06:25:09;100489.94;;;11.21;70.67
56671;BME280;42545;50.054;8.306;2023-04-30T06:27:35;100489.81;;;11.14;71.00
56671;BME280;42545;50.054;8.306;2023-04-30T06:30:03;100490.69;;;11.13;71.46
56671;BME280;42545;50.054;8.306;2023-04-30T06:32:30;100496.78;;;11.11;70.71
56671;BME280;42545;50.054;8.306;2023-04-30T06:34:59;100494.09;;;11.09;71.10
56671;BME280;42545;50.054;8.306;2023-04-30T06:37:25;100500.31;;;11.10;71.68
56671;BME280;42545;50.054;8.306;2023-04-30T06:39:52;100496.75;;;11.09;71.08
56671;BME280;42545;50.054;8.306;2023-04-30T06:42:18;100497.69;;;11.13;71.41
56671;BME280;42545;50.054;8.306;2023-04-30T06:44:46;100500.41;;;11.16;70.44
56671;BME280;42545;50.054;8.306;2023-04-30T06:47:12;100498.69;;;11.18;70.88
56671;BME280;42545;50.054;8.306;2023-04-30T06:49:39;100496.16;;;11.23;71.54
56671;BME280;42545;50.054;8.306;2023-04-30T06:52:08;100500.72;;;11.31;70.88
56671;BME280;42545;50.054;8.306;2023-04-30T06:54:35;100508.75;;;11.36;70.11
56671;BME280;42545;50.054;8.306;2023-04-30T06:57:01;100501.81;;;11.41;70.30
56671;BME280;42545;50.054;8.306;2023-04-30T06:59:28;100501.09;;;11.48;69.60
56671;BME280;42545;50.054;8.306;2023-04-30T07:01:55;100490.56;;;11.50;69.16
56671;BME280;42545;50.054;8.306;2023-04-30T07:04:22;100493.38;;;11.59;68.62
56671;BME280;42545;50.054;8.306;2023-04-30T07:06:50;100492.69;;;11.71;68.59
56671;BME280;42545;50.054;8.306;2023-04-30T07:09:18;100496.34;;;11.78;67.33
56671;BME280;42545;50.054;8.306;2023-04-30T07:11:45;100497.34;;;11.84;66.12
56671;BME280;42545;50.054;8.306;2023-04-30T07:14:11;100491.44;;;11.96;66.28
56671;BME280;42545;50.054;8.306;2023-04-30T07:16:38;100495.06;;;12.03;63.71
56671;BME280;42545;50.054;8.306;2023-04-30T07:19:04;100490.88;;;12.14;65.05
56671;BME280;42545;50.054;8.306;2023-04-30T07:21:31;100498.16;;;12.29;64.60
56671;BME280;42545;50.054;8.306;2023-04-30T07:23:58;100489.50;;;12.41;63.80
56671;BME280;42545;50.054;8.306;2023-04-30T07:26:25;100497.66;;;12.53;62.23
56671;BME280;42545;50.054;8.306;2023-04-30T07:28:52;100490.81;;;12.67;61.55
56671;BME280;42545;50.054;8.306;2023-04-30T07:31:19;100483.09;;;12.81;61.79
56671;BME280;42545;50.054;8.306;2023-04-30T07:33:46;100487.69;;;12.95;61.57
56671;BME280;42545;50.054;8.306;2023-04-30T07:36:14;100491.38;;;13.07;60.53
56671;BME280;42545;50.054;8.306;2023-04-30T07:38:41;100488.94;;;13.24;60.87
56671;BME280;42545;50.054;8.306;2023-04-30T07:41:07;100485.59;;;13.39;60.24
56671;BME280;42545;50.054;8.306;2023-04-30T07:43:36;100483.97;;;13.49;58.96
56671;BME280;42545;50.054;8.306;2023-04-30T07:46:03;100497.25;;;13.52;57.69
56671;BME280;42545;50.054;8.306;2023-04-30T07:48:30;100484.97;;;13.60;57.38
56671;BME280;42545;50.054;8.306;2023-04-30T07:50:56;100490.41;;;13.71;57.74
56671;BME280;42545;50.054;8.306;2023-04-30T07:53:23;100482.50;;;13.79;57.12
56671;BME280;42545;50.054;8.306;2023-04-30T07:55:49;100481.69;;;13.86;56.05
56671;BME280;42545;50.054;8.306;2023-04-30T07:58:16;100478.28;;;13.96;56.83
56671;BME280;42545;50.054;8.306;2023-04-30T08:00:44;100484.47;;;14.01;54.55
56671;BME280;42545;50.054;8.306;2023-04-30T08:03:11;100486.38;;;14.13;55.83
56671;BME280;42545;50.054;8.306;2023-04-30T08:05:37;100482.94;;;14.27;55.53
56671;BME280;42545;50.054;8.306;2023-04-30T08:08:05;100482.06;;;14.28;53.88
56671;BME280;42545;50.054;8.306;2023-04-30T08:10:32;100490.03;;;14.31;54.30
56671;BME280;42545;50.054;8.306;2023-04-30T08:13:01;100487.41;;;14.34;54.65
56671;BME280;42545;50.054;8.306;2023-04-30T08:15:29;100493.66;;;14.39;55.21
56671;BME280;42545;50.054;8.306;2023-04-30T08:17:57;100492.84;;;14.46;55.18
56671;BME280;42545;50.054;8.306;2023-04-30T08:20:24;100496.38;;;14.48;55.09
56671;BME280;42545;50.054;8.306;2023-04-30T08:22:51;100484.00;;;14.46;54.32
56671;BME280;42545;50.054;8.306;2023-04-30T08:25:18;100495.53;;;14.52;54.71
56671;BME280;42545;50.054;8.306;2023-04-30T08:27:45;100492.03;;;14.55;53.58
56671;BME280;42545;50.054;8.306;2023-04-30T08:30:11;100492.06;;;14.58;53.37
56671;BME280;42545;50.054;8.306;2023-04-30T08:32:38;100492.94;;;14.60;52.93
56671;BME280;42545;50.054;8.306;2023-04-30T08:35:08;100488.56;;;14.65;54.17
56671;BME280;42545;50.054;8.306;2023-04-30T08:37:34;100484.13;;;14.66;54.18
56671;BME280;42545;50.054;8.306;2023-04-30T08:40:01;100485.06;;;14.71;54.08
56671;BME280;42545;50.054;8.306;2023-04-30T08:42:31;100486.88;;;14.79;55.04
56671;BME280;42545;50.054;8.306;2023-04-30T08:45:02;100488.66;;;14.82;54.25
56671;BME280;42545;50.054;8.306;2023-04-30T08:47:29;100495.78;;;14.85;54.00
56671;BME280;42545;50.054;8.306;2023-04-30T08:49:56;100491.34;;;14.84;53.66
56671;BME280;42545;50.054;8.306;2023-04-30T08:52:25;100481.63;;;14.87;53.05
56671;BME280;42545;50.054;8.306;2023-04-30T08:54:56;100488.75;;;14.91;51.45
56671;BME280;42545;50.054;8.306;2023-04-30T08:57:23;100499.41;;;14.99;52.04
56671;BME280;42545;50.054;8.306;2023-04-30T08:59:50;100482.56;;;15.02;51.56
56671;BME280;42545;50.054;8.306;2023-04-30T09:02:16;100494.16;;;15.10;51.95
56671;BME280;42545;50.054;8.306;2023-04-30T09:04:43;100494.19;;;15.19;52.09
56671;BME280;42545;50.054;8.306;2023-04-30T09:07:12;100495.13;;;15.30;51.33
56671;BME280;42545;50.054;8.306;2023-04-30T09:09:40;100493.38;;;15.37;51.87
56671;BME280;42545;50.054;8.306;2023-04-30T09:12:11;100488.06;;;15.40;52.55
56671;BME280;42545;50.054;8.306;2023-04-30T09:14:39;100483.63;;;15.39;51.98
56671;BME280;42545;50.054;8.306;2023-04-30T09:17:06;100485.41;;;15.37;52.33
56671;BME280;42545;50.054;8.306;2023-04-30T09:19:33;100476.56;;;15.41;52.38
56671;BME280;42545;50.054;8.306;2023-04-30T09:22:17;100473.94;;;15.53;51.66
56671;BME280;42545;50.054;8.306;2023-04-30T09:24:47;100478.41;;;15.67;51.49
56671;BME280;42545;50.054;8.306;2023-04-30T09:27:16;100476.63;;;15.69;52.02
56671;BME280;42545;50.054;8.306;2023-04-30T09:29:43;100481.94;;;15.70;52.39
56671;BME280;42545;50.054;8.306;2023-04-30T09:32:10;100476.66;;;15.75;52.42
56671;BME280;42545;50.054;8.306;2023-04-30T09:34:37;100476.66;;;15.75;51.75
56671;BME280;42545;50.054;8.306;2023-04-30T09:37:04;100469.56;;;15.74;51.55
56671;BME280;42545;50.054;8.306;2023-04-30T09:39:32;100466.00;;;15.73;50.33
56671;BME280;42545;50.054;8.306;2023-04-30T09:42:09;100466.84;;;15.69;50.02
56671;BME280;42545;50.054;8.306;2023-04-30T09:44:38;100462.47;;;15.76;48.70
56671;BME280;42545;50.054;8.306;2023-04-30T09:47:09;100452.72;;;15.80;48.19
56671;BME280;42545;50.054;8.306;2023-04-30T09:49:37;100459.81;;;15.84;49.46
56671;BME280;42545;50.054;8.306;2023-04-30T09:52:04;100461.63;;;15.95;49.82
56671;BME280;42545;50.054;8.306;2023-04-30T09:54:31;100454.53;;;16.04;49.36
56671;BME280;42545;50.054;8.306;2023-04-30T09:56:59;100454.50;;;16.01;46.86
56671;BME280;42545;50.054;8.306;2023-04-30T09:59:29;100464.28;;;16.00;47.30
56671;BME280;42545;50.054;8.306;2023-04-30T10:01:57;100461.63;;;16.00;47.83
56671;BME280;42545;50.054;8.306;2023-04-30T10:04:25;100457.19;;;16.07;47.71
56671;BME280;42545;50.054;8.306;2023-04-30T10:06:53;100452.75;;;16.12;46.40
56671;BME280;42545;50.054;8.306;2023-04-30T10:09:24;100445.66;;;16.22;46.86
56671;BME280;42545;50.054;8.306;2023-04-30T10:11:55;100441.22;;;16.25;46.72
56671;BME280;42545;50.054;8.306;2023-04-30T10:14:24;100443.84;;;16.31;46.80
56671;BME280;42545;50.054;8.306;2023-04-30T10:17:00;100440.28;;;16.46;46.99
56671;BME280;42545;50.054;8.306;2023-04-30T10:19:30;100444.75;;;16.50;43.56
56671;BME280;42545;50.054;8.306;2023-04-30T10:21:59;100435.84;;;16.53;43.24
56671;BME280;42545;50.054;8.306;2023-04-30T10:24:27;100434.09;;;16.46;42.99
56671;BME280;42545;50.054;8.306;2023-04-30T10:26:54;100429.63;;;16.46;44.26
56671;BME280;42545;50.054;8.306;2023-04-30T10:29:21;100432.28;;;16.49;44.77
56671;BME280;42545;50.054;8.306;2023-04-30T10:31:49;100428.75;;;16.61;43.87
56671;BME280;42545;50.054;8.306;2023-04-30T10:34:24;100419.81;;;16.70;44.23
56671;BME280;42545;50.054;8.306;2023-04-30T10:36:57;100416.28;;;16.85;44.43
56671;BME280;42545;50.054;8.306;2023-04-30T10:39:26;100421.53;;;16.99;42.13
56671;BME280;42545;50.054;8.306;2023-04-30T10:42:00;100419.75;;;16.99;42.38
56671;BME280;42545;50.054;8.306;2023-04-30T10:44:31;100411.78;;;16.90;41.22
56671;BME280;42545;50.054;8.306;2023-04-30T10:46:58;100402.03;;;16.89;42.13
56671;BME280;42545;50.054;8.306;2023-04-30T10:49:29;100411.78;;;16.96;42.02
56671;BME280;42545;50.054;8.306;2023-04-30T10:51:58;100403.75;;;17.08;42.12
56671;BME280;42545;50.054;8.306;2023-04-30T10:54:26;100393.06;;;17.08;41.61
56671;BME280;42545;50.054;8.306;2023-04-30T10:57:00;100396.63;;;17.09;41.82
56671;BME280;42545;50.054;8.306;2023-04-30T10:59:34;100393.91;;;17.12;42.70
56671;BME280;42545;50.054;8.306;2023-04-30T11:02:01;100398.31;;;17.21;43.54
56671;BME280;42545;50.054;8.306;2023-04-30T11:04:29;100391.22;;;17.21;43.07
56671;BME280;42545;50.054;8.306;2023-04-30T11:07:01;100392.06;;;17.26;43.34
56671;BME280;42545;50.054;8.306;2023-04-30T11:09:38;100387.66;;;17.24;43.42
56671;BME280;42545;50.054;8.306;2023-04-30T11:12:11;100389.38;;;17.33;45.40
56671;BME280;42545;50.054;8.306;2023-04-30T11:14:42;100384.91;;;17.36;44.61
56671;BME280;42545;50.054;8.306;2023-04-30T11:17:11;100382.19;;;17.39;44.36
56671;BME280;42545;50.054;8.306;2023-04-30T11:19:45;100384.00;;;17.37;44.96
56671;BME280;42545;50.054;8.306;2023-04-30T11:22:21;100378.72;;;17.34;44.56
56671;BME280;42545;50.054;8.306;2023-04-30T11:24:50;100372.50;;;17.31;44.85
56671;BME280;42545;50.054;8.306;2023-04-30T11:27:22;100369.78;;;17.37;45.50
56671;BME280;42545;50.054;8.306;2023-04-30T11:29:50;100360.03;;;17.33;45.63
56671;BME280;42545;50.054;8.306;2023-04-30T11:32:17;100366.19;;;17.39;45.03
56671;BME280;42545;50.054;8.306;2023-04-30T11:34:46;100355.53;;;17.42;45.19
56671;BME280;42545;50.054;8.306;2023-04-30T11:37:18;100360.78;;;17.53;46.25
56671;BME280;42545;50.054;8.306;2023-04-30T11:39:45;100367.84;;;17.57;45.11
56671;BME280;42545;50.054;8.306;2023-04-30T11:42:17;100347.41;;;17.58;45.13
56671;BME280;42545;50.054;8.306;2023-04-30T11:44:44;100355.38;;;17.62;45.00
56671;BME280;42545;50.054;8.306;2023-04-30T11:47:11;100358.88;;;17.71;45.97
56671;BME280;42545;50.054;8.306;2023-04-30T11:49:38;100361.56;;;17.69;45.43
56671;BME280;42545;50.054;8.306;2023-04-30T11:52:07;100357.09;;;17.68;44.70
56671;BME280;42545;50.054;8.306;2023-04-30T11:54:35;100355.38;;;17.61;44.35
56671;BME280;42545;50.054;8.306;2023-04-30T11:57:03;100348.38;;;17.46;43.79
56671;BME280;42545;50.054;8.306;2023-04-30T11:59:30;100343.94;;;17.45;44.37
56671;BME280;42545;50.054;8.306;2023-04-30T12:01:57;100344.72;;;17.59;44.94
56671;BME280;42545;50.054;8.306;2023-04-30T12:04:25;100344.69;;;17.64;43.83
56671;BME280;42545;50.054;8.306;2023-04-30T12:06:51;100342.88;;;17.67;44.37
56671;BME280;42545;50.054;8.306;2023-04-30T12:09:20;100339.28;;;17.72;44.89
56671;BME280;42545;50.054;8.306;2023-04-30T12:11:46;100332.06;;;17.84;44.57
56671;BME280;42545;50.054;8.306;2023-04-30T12:14:13;100335.59;;;17.93;45.05
56671;BME280;42545;50.054;8.306;2023-04-30T12:16:42;100330.16;;;18.00;43.91
56671;BME280;42545;50.054;8.306;2023-04-30T12:19:10;100328.34;;;18.04;43.72
56671;BME280;42545;50.054;8.306;2023-04-30T12:21:37;100332.75;;;18.10;45.22
56671;BME280;42545;50.054;8.306;2023-04-30T12:24:04;100334.44;;;18.20;45.07
56671;BME280;42545;50.054;8.306;2023-04-30T12:26:35;100323.81;;;18.11;44.22
56671;BME280;42545;50.054;8.306;2023-04-30T12:29:04;100323.91;;;18.04;44.40
56671;BME280;42545;50.054;8.306;2023-04-30T12:31:31;100321.16;;;18.11;44.73
56671;BME280;42545;50.054;8.306;2023-04-30T12:34:02;100320.34;;;18.04;43.64
56671;BME280;42545;50.054;8.306;2023-04-30T12:36:30;100321.19;;;18.09;44.12
56671;BME280;42545;50.054;8.306;2023-04-30T12:39:02;100318.44;;;18.15;44.66
56671;BME280;42545;50.054;8.306;2023-04-30T12:41:36;100322.81;;;18.24;44.08
56671;BME280;42545;50.054;8.306;2023-04-30T12:44:14;100311.09;;;18.36;43.22
56671;BME280;42545;50.054;8.306;2023-04-30T12:46:40;100311.88;;;18.46;42.57
56671;BME280;42545;50.054;8.306;2023-04-30T12:49:09;100302.91;;;18.51;42.44
56671;BME280;42545;50.054;8.306;2023-04-30T12:51:36;100306.44;;;18.53;42.67
56671;BME280;42545;50.054;8.306;2023-04-30T12:54:05;100303.78;;;18.53;42.80
56671;BME280;42545;50.054;8.306;2023-04-30T12:56:32;100299.31;;;18.54;42.18
56671;BME280;42545;50.054;8.306;2023-04-30T12:59:00;100294.91;;;18.48;42.09